Time;durP1;ratioP1;P1;durP2;ratioP2;P2;SDS_P1;SDS_P2;PMS_P1;PMS_P2;Temp;Humidity;BMP_temperature;BMP_pressure;BME280_temperature;BME280_humidity;BME280_pressure;Samples;Min_cycle;Max_cycle;Signal;HPM_P1;HPM_P2
2023/05/04 00:01:10;;;;;;;1.38;1.27;;;14.80;99.90;;;;;;5021131;28;20250;-68
2023/05/04 00:03:37;;;;;;;1.30;1.30;;;14.80;99.90;;;;;;5020416;28;20225;-67
2023/05/04 00:06:05;;;;;;;1.42;1.42;;;14.70;99.90;;;;;;5022980;28;20207;-67
2023/05/04 00:08:32;;;;;;;1.23;1.23;;;14.70;99.90;;;;;;5017796;28;20282;-70
2023/05/04 00:10:59;;;;;;;1.38;1.25;;;14.80;99.90;;;;;;5022206;28;20226;-67
2023/05/04 00:13:27;;;;;;;1.65;1.55;;;14.80;99.90;;;;;;5019743;28;20265;-67
2023/05/04 00:15:54;;;;;;;1.20;1.20;;;14.80;99.90;;;;;;5025861;28;20258;-68
2023/05/04 00:18:21;;;;;;;1.23;1.20;;;14.90;99.90;;;;;;5024191;28;20199;-70
2023/05/04 00:20:48;;;;;;;1.40;1.40;;;14.90;99.90;;;;;;5024059;28;20673;-68
2023/05/04 00:30:01;;;;;;;1.95;1.40;;;14.70;99.90;;;;;;4958354;28;20257;-70
2023/05/04 00:32:29;;;;;;;1.30;1.30;;;14.70;99.90;;;;;;5008678;28;20282;-71
2023/05/04 00:34:56;;;;;;;1.10;1.10;;;14.70;99.90;;;;;;5007278;28;20296;-70
2023/05/04 00:37:26;;;;;;;1.10;1.10;;;14.70;99.90;;;;;;5008684;28;20212;-69
2023/05/04 00:39:53;;;;;;;1.17;1.17;;;14.70;99.90;;;;;;5004244;28;20227;-69
2023/05/04 00:42:20;;;;;;;1.27;1.25;;;14.70;99.90;;;;;;5006898;28;20255;-69
2023/05/04 00:44:47;;;;;;;1.38;1.38;;;14.70;99.90;;;;;;5008073;28;20208;-67
2023/05/04 00:47:18;;;;;;;1.63;1.48;;;14.70;99.90;;;;;;5001873;28;20255;-70
2023/05/04 00:49:45;;;;;;;1.23;1.20;;;14.70;99.90;;;;;;5008560;28;20712;-70
2023/05/04 00:52:13;;;;;;;1.50;1.40;;;14.70;99.90;;;;;;5007064;28;20286;-67
2023/05/04 00:54:42;;;;;;;1.58;1.48;;;14.70;99.90;;;;;;5006083;28;20214;-72
2023/05/04 00:57:09;;;;;;;1.20;1.20;;;14.70;99.90;;;;;;5003347;28;20743;-70
2023/05/04 00:59:36;;;;;;;1.20;1.20;;;14.70;99.90;;;;;;5004782;28;20211;-73
2023/05/04 01:02:03;;;;;;;1.27;1.20;;;14.70;99.90;;;;;;5003839;28;20275;-67
2023/05/04 01:04:37;;;;;;;1.58;1.40;;;14.80;99.90;;;;;;5002693;28;20208;-68
2023/05/04 01:07:14;;;;;;;1.30;1.20;;;14.70;99.90;;;;;;5002836;28;20661;-71
2023/05/04 01:09:45;;;;;;;1.30;1.30;;;14.70;99.90;;;;;;5004854;28;20235;-67
2023/05/04 01:12:17;;;;;;;1.20;1.20;;;14.70;99.90;;;;;;5005201;28;20243;-67
2023/05/04 01:14:46;;;;;;;1.08;1.08;;;14.80;99.90;;;;;;5006264;28;20201;-70
2023/05/04 01:17:14;;;;;;;1.10;1.10;;;14.70;99.90;;;;;;5003211;28;20776;-68
2023/05/04 01:19:42;;;;;;;1.20;1.20;;;14.70;99.90;;;;;;5006783;28;20196;-67
2023/05/04 01:22:10;;;;;;;1.20;1.20;;;14.70;99.90;;;;;;5006952;28;20216;-69
2023/05/04 01:24:38;;;;;;;1.20;1.20;;;14.70;99.90;;;;;;5005291;28;20258;-67
2023/05/04 01:27:11;;;;;;;1.42;1.30;;;14.70;99.90;;;;;;5008016;28;20642;-70
2023/05/04 01:29:45;;;;;;;1.30;1.20;;;14.70;99.90;;;;;;5004506;28;20246;-67
2023/05/04 01:34:41;;;;;;;1.13;1.13;;;14.70;99.90;;;;;;5009250;28;20219;-70
2023/05/04 01:37:10;;;;;;;1.40;1.30;;;14.70;99.90;;;;;;5007708;28;20192;-69
2023/05/04 01:39:37;;;;;;;1.15;1.15;;;14.70;99.90;;;;;;5007561;28;20234;-69
2023/05/04 01:42:06;;;;;;;1.20;1.20;;;14.70;99.90;;;;;;5003733;28;20393;-67
2023/05/04 01:44:33;;;;;;;1.38;1.38;;;14.60;99.90;;;;;;5003187;28;20212;-67
2023/05/04 01:47:00;;;;;;;1.23;1.23;;;14.50;99.90;;;;;;4999538;28;20273;-69
2023/05/04 01:49:27;;;;;;;1.17;1.17;;;14.50;99.90;;;;;;4999334;28;20799;-70
2023/05/04 01:51:53;;;;;;;3.20;1.40;;;14.50;99.90;;;;;;4998170;28;20221;-68
2023/05/04 01:54:22;;;;;;;1.30;1.30;;;14.50;99.90;;;;;;5002605;28;20204;-68
2023/05/04 01:56:49;;;;;;;1.20;1.20;;;14.50;99.90;;;;;;4998015;28;20228;-67
2023/05/04 01:59:16;;;;;;;1.60;1.20;;;14.50;99.90;;;;;;4998297;28;20243;-66
2023/05/04 02:01:43;;;;;;;1.10;1.10;;;14.40;99.90;;;;;;4994960;28;20244;-66
2023/05/04 02:04:10;;;;;;;1.10;1.10;;;14.40;99.90;;;;;;5004904;28;20212;-66
2023/05/04 02:06:37;;;;;;;1.52;1.42;;;14.30;99.90;;;;;;4999089;28;20208;-68
2023/05/04 02:09:04;;;;;;;1.40;1.30;;;14.30;99.90;;;;;;4998207;28;20200;-70
2023/05/04 02:11:32;;;;;;;1.38;1.27;;;14.20;99.90;;;;;;5000558;28;20220;-69
2023/05/04 02:13:59;;;;;;;1.05;1.05;;;14.20;99.90;;;;;;5000427;28;20232;-67
2023/05/04 02:16:26;;;;;;;1.15;1.15;;;14.20;99.90;;;;;;4996073;28;20215;-69
2023/05/04 02:18:53;;;;;;;1.55;1.30;;;14.10;99.90;;;;;;5002721;28;20200;-66
2023/05/04 02:23:55;;;;;;;1.00;1.00;;;14.10;99.90;;;;;;1445958;26;20234;-70
2023/05/04 02:26:22;;;;;;;1.20;1.20;;;14.10;99.90;;;;;;5002298;28;20200;-66
2023/05/04 02:28:51;;;;;;;1.25;1.15;;;14.10;99.90;;;;;;5000509;28;20236;-66
2023/05/04 02:31:17;;;;;;;1.40;1.40;;;14.00;99.90;;;;;;5002441;28;20894;-67
2023/05/04 02:33:44;;;;;;;1.20;1.20;;;14.00;99.90;;;;;;4998453;28;20200;-68
2023/05/04 02:36:11;;;;;;;1.58;1.30;;;14.00;99.90;;;;;;4999143;28;20223;-66
2023/05/04 02:38:38;;;;;;;1.27;1.27;;;13.90;99.90;;;;;;4997975;28;20223;-68
2023/05/04 02:41:08;;;;;;;1.20;1.17;;;13.90;99.90;;;;;;5026601;23;20236;-68
2023/05/04 02:43:35;;;;;;;1.10;1.10;;;13.90;99.90;;;;;;5000042;28;20227;-69
2023/05/04 02:46:03;;;;;;;1.05;1.05;;;13.80;99.90;;;;;;4994986;28;20192;-68
2023/05/04 02:48:31;;;;;;;1.30;1.30;;;13.80;99.90;;;;;;4998609;28;20216;-69
2023/05/04 02:50:58;;;;;;;1.45;1.33;;;13.90;99.90;;;;;;4998725;28;20302;-67
2023/05/04 02:53:25;;;;;;;1.30;1.30;;;13.80;99.90;;;;;;5003798;28;20247;-68
2023/05/04 02:55:52;;;;;;;1.15;1.02;;;13.80;99.90;;;;;;5003197;28;20314;-67
2023/05/04 02:58:19;;;;;;;1.20;1.20;;;13.80;99.90;;;;;;4999570;28;20232;-70
2023/05/04 03:00:46;;;;;;;1.60;1.50;;;13.80;99.90;;;;;;5001448;28;20224;-68
2023/05/04 03:03:14;;;;;;;1.40;1.40;;;13.80;99.90;;;;;;5000177;28;20274;-66
2023/05/04 03:05:41;;;;;;;1.70;1.60;;;13.80;99.90;;;;;;4999354;28;20494;-65
2023/05/04 03:08:08;;;;;;;1.50;1.40;;;13.70;99.90;;;;;;5001218;28;20256;-67
2023/05/04 03:10:35;;;;;;;1.60;1.50;;;13.70;99.90;;;;;;4999658;28;20211;-66
2023/05/04 03:13:04;;;;;;;1.20;1.20;;;13.70;99.90;;;;;;4999324;28;20208;-68
2023/05/04 03:15:32;;;;;;;1.50;1.50;;;13.70;99.90;;;;;;4997939;28;20219;-68
2023/05/04 03:17:59;;;;;;;1.35;1.35;;;13.70;99.90;;;;;;5000126;28;20208;-70
2023/05/04 03:20:27;;;;;;;1.17;1.17;;;13.70;99.90;;;;;;5000161;28;20231;-67
2023/05/04 03:22:54;;;;;;;1.88;1.77;;;13.70;99.90;;;;;;4997870;28;20309;-71
2023/05/04 03:25:21;;;;;;;1.10;1.10;;;13.70;99.90;;;;;;5001710;28;20747;-70
2023/05/04 03:27:48;;;;;;;1.30;1.30;;;13.60;99.90;;;;;;4998370;28;20627;-70
2023/05/04 03:30:15;;;;;;;1.70;1.60;;;13.70;99.90;;;;;;4996925;28;20236;-67
2023/05/04 03:32:42;;;;;;;1.35;1.30;;;13.60;99.90;;;;;;5000792;28;20259;-68
2023/05/04 03:35:09;;;;;;;1.67;1.58;;;13.60;99.90;;;;;;4999516;28;20200;-66
2023/05/04 03:37:38;;;;;;;1.20;1.20;;;13.60;99.90;;;;;;5000397;28;20211;-66
2023/05/04 03:40:06;;;;;;;1.30;1.30;;;13.60;99.90;;;;;;5000978;28;20855;-66
2023/05/04 03:42:37;;;;;;;1.67;1.58;;;13.60;99.90;;;;;;4998946;28;20266;-73
2023/05/04 03:45:04;;;;;;;1.13;1.13;;;13.70;99.90;;;;;;4998961;28;20825;-69
2023/05/04 03:47:31;;;;;;;1.55;1.45;;;13.70;99.90;;;;;;5002495;28;20208;-70
2023/05/04 03:49:58;;;;;;;1.50;1.50;;;13.70;99.90;;;;;;4998117;28;20255;-70
2023/05/04 03:52:25;;;;;;;1.40;1.40;;;13.70;99.90;;;;;;5001459;28;20228;-66
2023/05/04 03:54:54;;;;;;;1.80;1.70;;;13.70;99.90;;;;;;5000001;28;20600;-66
2023/05/04 03:57:23;;;;;;;1.55;1.45;;;13.70;99.90;;;;;;5000091;28;20207;-68
2023/05/04 03:59:49;;;;;;;1.20;1.20;;;13.70;99.90;;;;;;5000554;28;20211;-66
2023/05/04 04:02:17;;;;;;;1.30;1.30;;;13.60;99.90;;;;;;4997521;28;20224;-66
2023/05/04 04:04:44;;;;;;;1.30;1.30;;;13.60;99.90;;;;;;4999167;28;20219;-68
2023/05/04 04:07:11;;;;;;;1.80;1.70;;;13.60;99.90;;;;;;5001079;28;20266;-71
2023/05/04 04:09:38;;;;;;;1.38;1.38;;;13.60;99.90;;;;;;5000606;28;20296;-66
2023/05/04 04:12:06;;;;;;;1.30;1.30;;;13.60;99.90;;;;;;4995204;28;20255;-67
2023/05/04 04:14:33;;;;;;;1.60;1.50;;;13.60;99.90;;;;;;5005038;28;20204;-69
2023/05/04 04:17:00;;;;;;;1.55;1.45;;;13.70;99.90;;;;;;4999154;28;20196;-66
2023/05/04 04:19:27;;;;;;;1.35;1.33;;;13.70;99.90;;;;;;5003783;28;20293;-69
2023/05/04 04:21:54;;;;;;;1.60;1.50;;;13.70;99.90;;;;;;4997851;28;20275;-66
2023/05/04 04:24:21;;;;;;;1.00;1.00;;;13.70;99.90;;;;;;4999794;28;20243;-66
2023/05/04 04:26:48;;;;;;;1.27;1.27;;;13.70;99.90;;;;;;4999580;28;20676;-66
2023/05/04 04:29:16;;;;;;;1.42;1.42;;;13.70;99.90;;;;;;4994988;28;20275;-70
2023/05/04 04:31:43;;;;;;;1.55;1.45;;;13.70;99.90;;;;;;4997288;28;20224;-67
2023/05/04 04:34:10;;;;;;;1.60;1.50;;;13.70;99.90;;;;;;5001866;28;20227;-68
2023/05/04 04:36:37;;;;;;;1.65;1.55;;;13.60;99.90;;;;;;5001651;28;20199;-67
2023/05/04 04:39:05;;;;;;;1.45;1.38;;;13.60;99.90;;;;;;4998146;28;20799;-66
2023/05/04 04:41:32;;;;;;;1.38;1.38;;;13.60;99.90;;;;;;4996422;28;20291;-69
2023/05/04 04:43:58;;;;;;;1.38;1.38;;;13.60;99.90;;;;;;4990938;28;20306;-70
2023/05/04 04:46:28;;;;;;;1.35;1.33;;;13.70;99.90;;;;;;4994446;28;20216;-66
2023/05/04 04:48:56;;;;;;;1.55;1.45;;;13.70;99.90;;;;;;4999572;28;20207;-69
2023/05/04 04:51:26;;;;;;;1.85;1.55;;;13.70;99.90;;;;;;4999112;28;20224;-66
2023/05/04 04:53:53;;;;;;;1.58;1.48;;;13.70;99.90;;;;;;5003160;28;20201;-68
2023/05/04 04:56:20;;;;;;;1.73;1.33;;;13.70;99.90;;;;;;5001046;28;20246;-66
2023/05/04 04:58:47;;;;;;;1.60;1.50;;;13.70;99.90;;;;;;4997684;28;20852;-69
2023/05/04 05:01:16;;;;;;;1.58;1.48;;;13.70;99.90;;;;;;4998591;28;20315;-66
2023/05/04 05:03:45;;;;;;;1.45;1.45;;;13.70;99.90;;;;;;5001242;28;20222;-68
2023/05/04 05:06:12;;;;;;;1.52;1.40;;;13.70;99.90;;;;;;5004791;28;20298;-66
2023/05/04 05:08:39;;;;;;;1.58;1.58;;;13.80;99.90;;;;;;5001533;28;20228;-66
2023/05/04 05:11:06;;;;;;;1.70;1.60;;;13.70;99.90;;;;;;5002750;28;20307;-68
2023/05/04 05:13:33;;;;;;;1.50;1.45;;;13.70;99.90;;;;;;4997586;28;20201;-70
2023/05/04 05:16:00;;;;;;;1.38;1.38;;;13.80;99.90;;;;;;4999677;28;20205;-69
2023/05/04 05:18:28;;;;;;;1.58;1.48;;;13.90;99.90;;;;;;4995242;28;20219;-69
2023/05/04 05:20:56;;;;;;;1.67;1.58;;;13.90;99.90;;;;;;5000396;28;20208;-66
2023/05/04 05:23:23;;;;;;;1.70;1.60;;;13.90;99.90;;;;;;5007174;28;20255;-68
2023/05/04 05:25:51;;;;;;;1.50;1.40;;;13.90;99.90;;;;;;5001887;28;20208;-68
2023/05/04 05:28:18;;;;;;;1.50;1.50;;;13.90;99.90;;;;;;5002375;28;20322;-67
2023/05/04 05:30:45;;;;;;;1.60;1.50;;;13.90;99.90;;;;;;5003081;28;20311;-67
2023/05/04 05:33:12;;;;;;;1.63;1.52;;;14.00;99.90;;;;;;4997716;28;20317;-72
2023/05/04 05:35:39;;;;;;;1.58;1.48;;;14.00;99.90;;;;;;5001399;28;20207;-70
2023/05/04 05:38:08;;;;;;;1.50;1.40;;;14.10;99.90;;;;;;5002479;28;20208;-68
2023/05/04 05:40:36;;;;;;;1.95;1.75;;;14.10;99.90;;;;;;5000128;28;21208;-70
2023/05/04 05:43:04;;;;;;;1.67;1.58;;;14.20;99.90;;;;;;5000705;28;20224;-67
2023/05/04 05:45:31;;;;;;;1.52;1.42;;;14.20;99.90;;;;;;4998217;28;20279;-69
2023/05/04 05:47:58;;;;;;;1.63;1.52;;;14.30;99.90;;;;;;5000659;28;20255;-66
2023/05/04 05:50:25;;;;;;;1.67;1.60;;;14.30;99.90;;;;;;4994691;28;20201;-67
2023/05/04 05:52:52;;;;;;;1.70;1.60;;;14.40;99.90;;;;;;4998758;28;20232;-67
2023/05/04 05:55:20;;;;;;;1.98;1.80;;;14.40;99.90;;;;;;4996501;28;20201;-67
2023/05/04 05:57:47;;;;;;;1.45;1.38;;;14.40;99.90;;;;;;5000965;28;20227;-67
2023/05/04 06:00:15;;;;;;;1.67;1.58;;;14.40;99.90;;;;;;4998843;28;20240;-71
2023/05/04 06:02:44;;;;;;;1.52;1.50;;;14.40;99.90;;;;;;4996841;28;20225;-72
2023/05/04 06:05:11;;;;;;;1.27;1.27;;;14.40;99.90;;;;;;4999186;28;20244;-69
2023/05/04 06:07:38;;;;;;;1.65;1.55;;;14.30;99.90;;;;;;4999018;28;20274;-69
2023/05/04 06:10:06;;;;;;;1.88;1.77;;;14.30;99.90;;;;;;5002213;28;20232;-71
2023/05/04 06:12:34;;;;;;;1.67;1.58;;;14.40;99.90;;;;;;4998067;28;20232;-71
2023/05/04 06:15:01;;;;;;;1.60;1.50;;;14.40;99.90;;;;;;4997062;28;20976;-71
2023/05/04 06:17:28;;;;;;;1.42;1.38;;;14.50;99.90;;;;;;5000029;28;20294;-66
2023/05/04 06:19:55;;;;;;;1.48;1.48;;;14.50;99.90;;;;;;4997384;28;20274;-70
2023/05/04 06:22:22;;;;;;;1.73;1.63;;;14.60;99.90;;;;;;4997531;28;20307;-70
2023/05/04 06:24:49;;;;;;;1.73;1.63;;;14.80;99.90;;;;;;4996121;28;20298;-67
2023/05/04 06:27:16;;;;;;;1.58;1.48;;;14.90;99.90;;;;;;4997435;28;20287;-67
2023/05/04 06:29:45;;;;;;;1.92;1.60;;;14.90;99.90;;;;;;4996297;28;20871;-69
2023/05/04 06:32:12;;;;;;;1.90;1.80;;;15.00;99.90;;;;;;4996023;28;20231;-73
2023/05/04 06:34:39;;;;;;;1.95;1.85;;;15.10;99.90;;;;;;4992180;28;20979;-67
2023/05/04 06:37:06;;;;;;;3.72;1.90;;;15.10;99.90;;;;;;4993779;28;20948;-67
2023/05/04 06:39:33;;;;;;;1.75;1.65;;;15.30;99.90;;;;;;4992642;28;20625;-69
2023/05/04 06:42:01;;;;;;;1.80;1.70;;;15.30;99.90;;;;;;4991485;28;20961;-71
2023/05/04 06:44:28;;;;;;;1.75;1.65;;;15.40;99.90;;;;;;4994562;28;20224;-67
2023/05/04 06:46:56;;;;;;;1.52;1.52;;;15.60;99.90;;;;;;4991952;28;20197;-69
2023/05/04 06:49:23;;;;;;;1.70;1.60;;;15.70;99.90;;;;;;4992631;28;20710;-70
2023/05/04 06:51:50;;;;;;;2.35;1.50;;;15.90;99.90;;;;;;4987191;28;20274;-71
2023/05/04 06:54:17;;;;;;;1.65;1.55;;;16.10;99.90;;;;;;4993261;28;20193;-69
2023/05/04 06:56:44;;;;;;;1.77;1.67;;;16.30;99.90;;;;;;4992851;28;20258;-73
2023/05/04 06:59:11;;;;;;;1.85;1.75;;;16.50;99.90;;;;;;4992913;28;20200;-70
2023/05/04 07:01:38;;;;;;;1.55;1.45;;;16.60;99.90;;;;;;4989552;28;20216;-72
2023/05/04 07:04:06;;;;;;;2.00;1.90;;;16.70;99.90;;;;;;4993627;28;20302;-72
2023/05/04 07:06:33;;;;;;;1.98;1.88;;;16.80;99.90;;;;;;4995184;28;20322;-68
2023/05/04 07:09:00;;;;;;;1.70;1.60;;;17.10;99.90;;;;;;4993226;28;20297;-67
2023/05/04 07:11:27;;;;;;;1.90;1.80;;;17.20;99.90;;;;;;4995510;28;20311;-71
2023/05/04 07:13:54;;;;;;;1.70;1.60;;;17.30;99.90;;;;;;4994078;28;20228;-70
2023/05/04 07:16:21;;;;;;;1.70;1.60;;;17.30;99.90;;;;;;5000072;28;20206;-71
2023/05/04 07:18:48;;;;;;;1.80;1.65;;;17.30;99.90;;;;;;4994858;28;20212;-69
2023/05/04 07:21:17;;;;;;;1.88;1.70;;;17.40;99.90;;;;;;4994305;28;20677;-71
2023/05/04 07:23:44;;;;;;;1.38;1.33;;;17.60;99.90;;;;;;4991236;28;20216;-68
2023/05/04 07:26:14;;;;;;;1.70;1.60;;;17.80;99.90;;;;;;4994186;28;20224;-68
2023/05/04 07:28:42;;;;;;;1.52;1.42;;;18.00;99.90;;;;;;4993577;28;20233;-71
2023/05/04 07:31:09;;;;;;;1.60;1.50;;;18.10;99.90;;;;;;4993458;28;20200;-69
2023/05/04 07:33:36;;;;;;;1.70;1.60;;;18.30;99.90;;;;;;4995314;28;20300;-73
2023/05/04 07:36:03;;;;;;;1.88;1.77;;;18.20;99.90;;;;;;4998732;28;20959;-72
2023/05/04 07:38:31;;;;;;;1.85;1.75;;;18.40;99.90;;;;;;4994536;28;20255;-69
2023/05/04 07:40:59;;;;;;;2.78;1.52;;;18.60;99.90;;;;;;4993154;28;20284;-70
2023/05/04 07:43:26;;;;;;;1.60;1.50;;;19.20;99.90;;;;;;4997779;28;20731;-67
2023/05/04 07:45:53;;;;;;;1.20;1.20;;;19.50;99.90;;;;;;4990069;28;22168;-70
2023/05/04 07:48:20;;;;;;;1.70;1.60;;;19.70;99.90;;;;;;4988413;28;20254;-68
2023/05/04 07:50:48;;;;;;;1.33;1.23;;;19.80;99.90;;;;;;4992039;28;20204;-71
2023/05/04 07:53:15;;;;;;;1.40;1.30;;;19.90;99.90;;;;;;5000868;28;20231;-71
2023/05/04 07:55:43;;;;;;;1.48;1.33;;;20.10;99.90;;;;;;4997700;28;20215;-71
2023/05/04 07:58:10;;;;;;;1.58;1.45;;;20.50;99.90;;;;;;4994256;28;20296;-72
2023/05/04 08:00:37;;;;;;;1.65;1.55;;;20.50;99.90;;;;;;4995442;28;20373;-70
2023/05/04 08:03:04;;;;;;;2.90;1.55;;;20.50;99.90;;;;;;4992997;28;20270;-70
2023/05/04 08:05:31;;;;;;;1.50;1.40;;;20.60;99.90;;;;;;4997133;28;20317;-67
2023/05/04 08:07:58;;;;;;;1.75;1.65;;;20.80;99.90;;;;;;4997314;28;20208;-72
2023/05/04 08:10:26;;;;;;;2.67;1.80;;;21.10;99.90;;;;;;4996794;28;20196;-68
2023/05/04 08:12:55;;;;;;;1.95;1.48;;;21.20;99.90;;;;;;4995561;28;20775;-68
2023/05/04 08:15:22;;;;;;;1.55;1.45;;;21.50;99.90;;;;;;4995541;28;20204;-68
2023/05/04 08:17:50;;;;;;;1.45;1.35;;;21.40;99.90;;;;;;4997345;28;20223;-72
2023/05/04 08:20:17;;;;;;;2.72;1.63;;;21.40;99.90;;;;;;4998114;28;20289;-71
2023/05/04 08:22:44;;;;;;;1.58;1.48;;;21.60;99.90;;;;;;5002261;28;20332;-67
2023/05/04 08:25:11;;;;;;;1.83;1.70;;;21.80;99.90;;;;;;4993602;28;20307;-68
2023/05/04 08:27:38;;;;;;;1.67;1.42;;;21.80;99.90;;;;;;4999744;28;20257;-68
2023/05/04 08:30:08;;;;;;;1.40;1.30;;;21.70;99.90;;;;;;4992901;28;20570;-68
2023/05/04 08:32:35;;;;;;;3.00;1.55;;;21.60;99.90;;;;;;4992997;28;20311;-72
2023/05/04 08:35:03;;;;;;;1.55;1.45;;;21.50;99.90;;;;;;4992757;28;20706;-68
2023/05/04 08:37:30;;;;;;;2.25;1.33;;;21.40;99.90;;;;;;4999227;28;20217;-67
2023/05/04 08:39:57;;;;;;;1.70;1.58;;;21.30;99.90;;;;;;4999305;28;20204;-71
2023/05/04 08:42:27;;;;;;;1.63;1.50;;;21.40;99.90;;;;;;4997884;28;20941;-74
2023/05/04 08:44:57;;;;;;;1.52;1.40;;;21.70;99.90;;;;;;4998627;28;20212;-67
2023/05/04 08:47:25;;;;;;;1.60;1.50;;;21.60;99.90;;;;;;4998605;28;20206;-69
2023/05/04 08:49:53;;;;;;;2.08;1.55;;;21.70;99.90;;;;;;4995901;28;20267;-73
2023/05/04 08:52:23;;;;;;;1.83;1.73;;;21.60;99.90;;;;;;4996198;28;20676;-72
2023/05/04 08:54:54;;;;;;;1.40;1.30;;;21.50;99.90;;;;;;4996815;28;20188;-70
2023/05/04 08:57:23;;;;;;;1.98;1.50;;;21.40;99.90;;;;;;4999323;28;20204;-69
2023/05/04 08:59:52;;;;;;;1.50;1.40;;;21.70;99.90;;;;;;5002858;28;20208;-69
2023/05/04 09:02:21;;;;;;;2.65;1.30;;;21.80;99.90;;;;;;4999729;28;20255;-72
2023/05/04 09:04:50;;;;;;;2.45;1.50;;;22.00;99.90;;;;;;5000288;28;20204;-71
2023/05/04 09:07:17;;;;;;;2.88;1.30;;;21.80;99.90;;;;;;4998847;28;20205;-72
2023/05/04 09:09:47;;;;;;;1.63;1.13;;;21.80;99.90;;;;;;4999442;28;20262;-69
2023/05/04 09:12:15;;;;;;;2.05;1.52;;;21.70;99.90;;;;;;4999344;28;20719;-70
2023/05/04 09:14:45;;;;;;;2.83;1.52;;;21.50;99.90;;;;;;4999452;28;20271;-73
2023/05/04 09:17:24;;;;;;;1.60;1.48;;;21.40;99.90;;;;;;5001583;28;20208;-71
2023/05/04 09:19:59;;;;;;;2.35;1.33;;;21.40;99.90;;;;;;5000045;28;20200;-74
2023/05/04 09:22:27;;;;;;;1.70;1.60;;;21.50;99.90;;;;;;4996888;28;21316;-71
2023/05/04 09:25:04;;;;;;;1.42;1.33;;;21.40;99.90;;;;;;4997098;28;20209;-72
2023/05/04 09:27:31;;;;;;;1.90;1.38;;;21.60;99.90;;;;;;5000510;28;20203;-69
2023/05/04 09:29:58;;;;;;;1.40;1.30;;;21.60;99.90;;;;;;5002130;28;20289;-73
2023/05/04 09:32:25;;;;;;;1.40;1.30;;;21.70;99.90;;;;;;4995672;28;20311;-73
2023/05/04 09:34:53;;;;;;;1.60;1.50;;;21.90;99.90;;;;;;4996538;28;20676;-73
2023/05/04 09:37:22;;;;;;;1.55;1.45;;;22.00;99.90;;;;;;4999525;28;20281;-74
2023/05/04 09:39:54;;;;;;;1.50;1.38;;;22.20;99.90;;;;;;4999790;28;20291;-72
2023/05/04 09:42:22;;;;;;;1.58;1.48;;;22.30;99.90;;;;;;4996808;28;20748;-73
2023/05/04 09:45:00;;;;;;;1.42;1.20;;;22.50;99.90;;;;;;5003718;28;20202;-70
2023/05/04 09:47:34;;;;;;;1.88;1.50;;;22.50;99.90;;;;;;5006182;28;20199;-70
2023/05/04 09:50:13;;;;;;;1.45;1.35;;;22.60;99.90;;;;;;5000689;28;20225;-69
2023/05/04 09:52:42;;;;;;;2.33;1.25;;;22.30;99.90;;;;;;5002084;28;20220;-73
2023/05/04 09:55:12;;;;;;;1.10;1.10;;;22.50;99.90;;;;;;4998975;28;20207;-74
2023/05/04 09:57:41;;;;;;;1.60;1.50;;;22.50;99.90;;;;;;5003512;28;20200;-74
2023/05/04 10:00:10;;;;;;;1.70;1.55;;;22.40;99.90;;;;;;4993392;28;20200;-72
2023/05/04 10:02:37;;;;;;;1.40;1.30;;;22.70;99.90;;;;;;4997544;28;20220;-73
2023/05/04 10:05:06;;;;;;;1.40;1.30;;;22.70;99.90;;;;;;4996183;28;20307;-69
2023/05/04 10:07:34;;;;;;;1.58;1.48;;;22.60;99.90;;;;;;4999211;28;20639;-71
2023/05/04 10:10:07;;;;;;;1.67;1.20;;;22.60;99.90;;;;;;4997413;28;20220;-72
2023/05/04 10:12:34;;;;;;;2.28;1.33;;;22.60;99.90;;;;;;4995561;28;20228;-73
2023/05/04 10:15:02;;;;;;;1.73;1.30;;;22.70;99.90;;;;;;4997211;28;20309;-72
2023/05/04 10:17:46;;;;;;;1.40;1.30;;;22.80;99.90;;;;;;4998482;28;20295;-72
2023/05/04 10:20:26;;;;;;;1.10;1.05;;;22.80;99.90;;;;;;4997553;28;20298;-74
2023/05/04 10:23:13;;;;;;;1.65;1.20;;;22.90;99.90;;;;;;4996668;28;20315;-71
2023/05/04 10:25:59;;;;;;;1.35;1.25;;;23.00;99.90;;;;;;5000496;28;20797;-68
2023/05/04 10:28:37;;;;;;;3.50;1.48;;;23.30;99.90;;;;;;4997840;28;20743;-73
2023/05/04 10:31:05;;;;;;;1.38;1.30;;;23.40;99.90;;;;;;5000888;28;20272;-73
2023/05/04 10:33:41;;;;;;;1.50;1.40;;;23.00;99.90;;;;;;4999667;28;20676;-72
2023/05/04 10:36:09;;;;;;;1.40;1.30;;;23.10;99.90;;;;;;5000385;28;20277;-69
2023/05/04 10:38:37;;;;;;;1.10;1.10;;;23.10;99.90;;;;;;4998849;28;20213;-72
2023/05/04 10:41:15;;;;;;;2.40;1.50;;;23.10;99.90;;;;;;4999849;28;20294;-73
2023/05/04 10:43:47;;;;;;;1.48;1.00;;;23.10;99.90;;;;;;4998562;28;20210;-74
2023/05/04 10:46:18;;;;;;;1.20;1.20;;;23.20;99.90;;;;;;4995467;28;20279;-72
2023/05/04 10:48:45;;;;;;;1.30;1.20;;;23.20;99.90;;;;;;4994488;28;20891;-74
2023/05/04 10:51:19;;;;;;;1.30;1.00;;;23.20;99.90;;;;;;4997021;28;20284;-69
2023/05/04 10:53:47;;;;;;;1.20;1.10;;;23.30;99.90;;;;;;4996038;28;20215;-69
2023/05/04 10:56:22;;;;;;;1.38;1.15;;;23.60;99.90;;;;;;4993497;28;20202;-74
2023/05/04 10:58:50;;;;;;;1.20;1.20;;;23.90;99.90;;;;;;4992401;28;20287;-70
2023/05/04 11:01:17;;;;;;;1.92;1.30;;;23.90;99.90;;;;;;4993589;28;20255;-70
2023/05/04 11:03:44;;;;;;;1.25;1.17;;;23.70;99.90;;;;;;4995750;28;20245;-69
2023/05/04 11:06:18;;;;;;;1.05;1.02;;;23.60;99.90;;;;;;4990881;28;20256;-72
2023/05/04 11:08:48;;;;;;;1.35;1.27;;;23.40;99.90;;;;;;4993788;28;20286;-72
2023/05/04 11:11:15;;;;;;;1.70;1.50;;;23.20;99.90;;;;;;4996989;28;20339;-72
2023/05/04 11:13:46;;;;;;;1.85;1.10;;;23.20;99.90;;;;;;4992542;28;20209;-71
2023/05/04 11:16:13;;;;;;;2.13;1.33;;;23.20;99.90;;;;;;4986352;28;20209;-72
2023/05/04 11:18:41;;;;;;;1.30;1.20;;;23.20;99.90;;;;;;4995685;28;20824;-69
2023/05/04 11:21:09;;;;;;;1.38;1.33;;;23.30;99.90;;;;;;4995546;28;20252;-71
2023/05/04 11:23:36;;;;;;;1.38;1.27;;;23.40;99.90;;;;;;4996014;28;20238;-70
2023/05/04 11:26:07;;;;;;;1.30;1.20;;;23.60;99.90;;;;;;4998120;28;20638;-68
2023/05/04 11:28:36;;;;;;;1.70;1.02;;;23.70;99.90;;;;;;4996896;28;20274;-71
2023/05/04 11:31:13;;;;;;;7.68;1.30;;;23.70;99.90;;;;;;4994250;28;20408;-72
2023/05/04 11:33:46;;;;;;;1.20;1.10;;;23.60;99.90;;;;;;4995460;28;20287;-73
2023/05/04 11:36:14;;;;;;;0.98;0.98;;;23.70;99.90;;;;;;4995217;28;20219;-66
2023/05/04 11:38:41;;;;;;;1.40;1.30;;;23.80;99.90;;;;;;4995982;28;20203;-68
2023/05/04 11:41:09;;;;;;;1.40;1.30;;;24.00;99.90;;;;;;4993353;28;20220;-71
2023/05/04 11:43:37;;;;;;;1.15;1.05;;;23.80;99.90;;;;;;4996446;28;20208;-71
2023/05/04 11:46:06;;;;;;;1.20;1.10;;;23.80;99.90;;;;;;5001872;28;20223;-72
2023/05/04 11:48:35;;;;;;;1.25;1.20;;;23.60;99.90;;;;;;5000386;28;20226;-67
2023/05/04 11:51:02;;;;;;;1.27;1.17;;;23.70;99.90;;;;;;4992604;28;20681;-68
2023/05/04 11:53:38;;;;;;;1.48;1.20;;;23.70;99.90;;;;;;4999736;28;20290;-71
2023/05/04 11:56:07;;;;;;;2.20;1.23;;;23.90;99.90;;;;;;4998134;28;20288;-72
2023/05/04 11:58:34;;;;;;;1.30;1.20;;;24.00;99.90;;;;;;4997978;28;20204;-72
2023/05/04 12:01:02;;;;;;;1.13;1.13;;;24.10;99.90;;;;;;4996976;28;20205;-70
2023/05/04 12:03:31;;;;;;;1.27;1.17;;;24.10;99.90;;;;;;4999498;28;20723;-68
2023/05/04 12:06:01;;;;;;;1.10;1.10;;;24.10;99.90;;;;;;4994300;28;20224;-72
2023/05/04 12:08:33;;;;;;;1.23;1.00;;;24.10;99.90;;;;;;4996284;28;20298;-70
2023/05/04 12:11:13;;;;;;;0.98;0.98;;;24.20;99.90;;;;;;4994763;28;20228;-73
2023/05/04 12:13:41;;;;;;;2.25;1.33;;;24.20;99.90;;;;;;4999160;28;20275;-73
2023/05/04 12:16:10;;;;;;;1.20;1.10;;;24.20;99.90;;;;;;4995090;28;20201;-69
2023/05/04 12:18:37;;;;;;;1.38;1.27;;;24.20;99.90;;;;;;4996489;28;20200;-71
2023/05/04 12:21:17;;;;;;;1.45;0.90;;;24.20;99.90;;;;;;4996129;28;20282;-72
2023/05/04 12:23:45;;;;;;;2.10;1.30;;;24.20;99.90;;;;;;4995979;28;20208;-72
2023/05/04 12:26:13;;;;;;;1.77;1.10;;;24.00;99.90;;;;;;4995428;28;20212;-71
2023/05/04 12:28:41;;;;;;;1.45;1.25;;;24.00;99.90;;;;;;4997821;28;20304;-71
2023/05/04 12:31:09;;;;;;;2.10;1.10;;;24.20;99.90;;;;;;4996736;28;20232;-69
2023/05/04 12:33:36;;;;;;;1.33;1.20;;;24.30;99.90;;;;;;4997953;28;20217;-72
2023/05/04 12:36:04;;;;;;;1.00;1.00;;;24.30;99.90;;;;;;4998585;28;20197;-74
2023/05/04 12:38:33;;;;;;;1.15;1.05;;;24.30;99.90;;;;;;4997414;28;20607;-69
2023/05/04 12:41:02;;;;;;;0.80;0.80;;;24.50;99.90;;;;;;4993187;28;20211;-72
2023/05/04 12:43:30;;;;;;;1.38;1.15;;;24.50;99.90;;;;;;4998823;28;20208;-69
2023/05/04 12:45:57;;;;;;;1.23;1.10;;;24.70;99.90;;;;;;4995942;28;20731;-71
2023/05/04 12:48:25;;;;;;;1.15;1.10;;;24.80;99.90;;;;;;5001433;28;20764;-70
2023/05/04 12:50:52;;;;;;;1.27;1.00;;;24.90;99.90;;;;;;4997522;28;20196;-74
2023/05/04 12:53:21;;;;;;;2.00;1.10;;;24.80;99.90;;;;;;4996605;28;20337;-74
2023/05/04 12:55:49;;;;;;;1.00;0.90;;;24.70;99.90;;;;;;4996290;28;20410;-70
2023/05/04 12:58:16;;;;;;;1.48;1.00;;;24.70;99.90;;;;;;4998517;28;20277;-70
2023/05/04 13:00:43;;;;;;;1.42;1.00;;;24.60;99.90;;;;;;4994715;28;20296;-66
2023/05/04 13:03:11;;;;;;;1.20;1.00;;;24.60;99.90;;;;;;4993178;28;20315;-69
2023/05/04 13:05:39;;;;;;;1.20;1.10;;;24.60;99.90;;;;;;4996515;28;20245;-73